sensor_id;sensor_type;location;lat;lon;timestamp;temperature;humidity
46055;DHT22;31788;6.954;-71.872;2022-08-30T00:00:28;27.60;99.90
46055;DHT22;31788;6.954;-71.872;2022-08-30T00:03:13;27.70;99.90
46055;DHT22;31788;6.954;-71.872;2022-08-30T00:05:41;27.60;99.90
46055;DHT22;31788;6.954;-71.872;2022-08-30T00:08:08;27.60;99.90
46055;DHT22;31788;6.954;-71.872;2022-08-30T00:10:36;27.70;99.90
46055;DHT22;31788;6.954;-71.872;2022-08-30T00:13:04;27.70;99.90
46055;DHT22;31788;6.954;-71.872;2022-08-30T00:15:32;27.60;99.90
46055;DHT22;31788;6.954;-71.872;2022-08-30T00:18:00;27.70;99.90
46055;DHT22;31788;6.954;-71.872;2022-08-30T00:20:29;27.70;99.90
46055;DHT22;31788;6.954;-71.872;2022-08-30T00:22:56;27.70;99.90
46055;DHT22;31788;6.954;-71.872;2022-08-30T00:25:23;27.70;99.90
46055;DHT22;31788;6.954;-71.872;2022-08-30T00:27:51;27.70;99.90
46055;DHT22;31788;6.954;-71.872;2022-08-30T00:30:19;27.60;99.90
46055;DHT22;31788;6.954;-71.872;2022-08-30T00:32:46;27.60;99.90
46055;DHT22;31788;6.954;-71.872;2022-08-30T00:35:16;27.60;99.90
46055;DHT22;31788;6.954;-71.872;2022-08-30T00:37:45;27.60;99.90
46055;DHT22;31788;6.954;-71.872;2022-08-30T00:40:13;27.50;99.90
46055;DHT22;31788;6.954;-71.872;2022-08-30T00:42:45;27.50;99.90
46055;DHT22;31788;6.954;-71.872;2022-08-30T00:45:23;27.50;99.90
46055;DHT22;31788;6.954;-71.872;2022-08-30T00:47:51;27.40;99.90
46055;DHT22;31788;6.954;-71.872;2022-08-30T00:50:21;27.40;99.90
46055;DHT22;31788;6.954;-71.872;2022-08-30T00:52:50;27.30;99.90
46055;DHT22;31788;6.954;-71.872;2022-08-30T00:55:19;27.30;99.90
46055;DHT22;31788;6.954;-71.872;2022-08-30T00:57:46;27.20;99.90
46055;DHT22;31788;6.954;-71.872;2022-08-30T01:00:15;27.10;99.90
46055;DHT22;31788;6.954;-71.872;2022-08-30T01:02:42;27.10;99.90
46055;DHT22;31788;6.954;-71.872;2022-08-30T01:05:10;27.10;99.90
46055;DHT22;31788;6.954;-71.872;2022-08-30T01:07:38;27.10;99.90
46055;DHT22;31788;6.954;-71.872;2022-08-30T01:10:06;27.10;99.90
46055;DHT22;31788;6.954;-71.872;2022-08-30T01:12:36;27.10;99.90
46055;DHT22;31788;6.954;-71.872;2022-08-30T01:15:04;27.10;99.90
46055;DHT22;31788;6.954;-71.872;2022-08-30T01:17:31;27.10;99.90
46055;DHT22;31788;6.954;-71.872;2022-08-30T01:20:11;27.10;99.90
46055;DHT22;31788;6.954;-71.872;2022-08-30T01:25:18;27.10;99.90
46055;DHT22;31788;6.954;-71.872;2022-08-30T01:27:52;27.00;99.90
46055;DHT22;31788;6.954;-71.872;2022-08-30T01:30:20;26.90;99.90
46055;DHT22;31788;6.954;-71.872;2022-08-30T01:32:49;26.90;99.90
46055;DHT22;31788;6.954;-71.872;2022-08-30T01:35:18;26.80;99.90
46055;DHT22;31788;6.954;-71.872;2022-08-30T01:37:45;26.80;99.90
46055;DHT22;31788;6.954;-71.872;2022-08-30T01:40:14;26.80;99.90
46055;DHT22;31788;6.954;-71.872;2022-08-30T01:42:41;26.70;99.90
46055;DHT22;31788;6.954;-71.872;2022-08-30T01:45:09;26.80;99.90
46055;DHT22;31788;6.954;-71.872;2022-08-30T01:47:36;26.70;99.90
46055;DHT22;31788;6.954;-71.872;2022-08-30T01:50:04;26.70;99.90
46055;DHT22;31788;6.954;-71.872;2022-08-30T01:52:31;26.70;99.90
46055;DHT22;31788;6.954;-71.872;2022-08-30T01:55:00;26.60;99.90
46055;DHT22;31788;6.954;-71.872;2022-08-30T01:57:26;26.60;99.90
46055;DHT22;31788;6.954;-71.872;2022-08-30T01:59:54;26.70;99.90
46055;DHT22;31788;6.954;-71.872;2022-08-30T02:02:23;26.60;99.90
46055;DHT22;31788;6.954;-71.872;2022-08-30T02:04:51;26.60;99.90
46055;DHT22;31788;6.954;-71.872;2022-08-30T02:07:19;26.60;99.90
46055;DHT22;31788;6.954;-71.872;2022-08-30T02:09:46;26.60;99.90
46055;DHT22;31788;6.954;-71.872;2022-08-30T02:12:13;26.60;99.90
46055;DHT22;31788;6.954;-71.872;2022-08-30T02:14:40;26.60;99.90
46055;DHT22;31788;6.954;-71.872;2022-08-30T02:17:08;26.70;99.90
46055;DHT22;31788;6.954;-71.872;2022-08-30T02:19:36;26.70;99.90
46055;DHT22;31788;6.954;-71.872;2022-08-30T02:22:03;26.70;99.90
46055;DHT22;31788;6.954;-71.872;2022-08-30T02:24:30;26.60;99.90
46055;DHT22;31788;6.954;-71.872;2022-08-30T02:26:57;26.70;99.90
46055;DHT22;31788;6.954;-71.872;2022-08-30T02:29:24;26.60;99.90
46055;DHT22;31788;6.954;-71.872;2022-08-30T02:31:52;26.50;99.90
46055;DHT22;31788;6.954;-71.872;2022-08-30T02:34:19;26.60;99.90
46055;DHT22;31788;6.954;-71.872;2022-08-30T02:36:45;26.50;99.90
46055;DHT22;31788;6.954;-71.872;2022-08-30T02:39:13;26.50;99.90
46055;DHT22;31788;6.954;-71.872;2022-08-30T02:41:41;26.50;99.90
46055;DHT22;31788;6.954;-71.872;2022-08-30T02:44:08;26.50;99.90
46055;DHT22;31788;6.954;-71.872;2022-08-30T02:46:36;26.40;99.90
46055;DHT22;31788;6.954;-71.872;2022-08-30T02:49:04;26.30;99.90
46055;DHT22;31788;6.954;-71.872;2022-08-30T02:51:30;26.30;99.90
46055;DHT22;31788;6.954;-71.872;2022-08-30T02:53:57;26.30;99.90
46055;DHT22;31788;6.954;-71.872;2022-08-30T02:56:23;26.30;99.90
46055;DHT22;31788;6.954;-71.872;2022-08-30T02:58:50;26.20;99.90
46055;DHT22;31788;6.954;-71.872;2022-08-30T03:01:16;26.20;99.90
46055;DHT22;31788;6.954;-71.872;2022-08-30T03:03:44;26.30;99.90
46055;DHT22;31788;6.954;-71.872;2022-08-30T03:06:12;26.30;99.90
46055;DHT22;31788;6.954;-71.872;2022-08-30T03:08:39;26.20;99.90
46055;DHT22;31788;6.954;-71.872;2022-08-30T03:11:06;26.20;99.90
46055;DHT22;31788;6.954;-71.872;2022-08-30T03:13:33;26.20;99.90
46055;DHT22;31788;6.954;-71.872;2022-08-30T03:16:00;26.10;99.90
46055;DHT22;31788;6.954;-71.872;2022-08-30T03:18:26;26.10;99.90
46055;DHT22;31788;6.954;-71.872;2022-08-30T03:20:53;26.20;99.90
46055;DHT22;31788;6.954;-71.872;2022-08-30T03:23:20;26.10;99.90
46055;DHT22;31788;6.954;-71.872;2022-08-30T03:25:47;26.10;99.90
46055;DHT22;31788;6.954;-71.872;2022-08-30T03:28:13;26.10;99.90
46055;DHT22;31788;6.954;-71.872;2022-08-30T03:30:40;26.10;99.90
46055;DHT22;31788;6.954;-71.872;2022-08-30T03:33:06;26.00;99.90
46055;DHT22;31788;6.954;-71.872;2022-08-30T03:35:33;26.00;99.90
46055;DHT22;31788;6.954;-71.872;2022-08-30T03:37:59;26.00;99.90
46055;DHT22;31788;6.954;-71.872;2022-08-30T03:40:26;26.00;99.90
46055;DHT22;31788;6.954;-71.872;2022-08-30T03:42:53;26.00;99.90
46055;DHT22;31788;6.954;-71.872;2022-08-30T03:45:19;25.90;99.90
46055;DHT22;31788;6.954;-71.872;2022-08-30T03:47:46;25.90;99.90
46055;DHT22;31788;6.954;-71.872;2022-08-30T03:50:13;25.90;99.90
46055;DHT22;31788;6.954;-71.872;2022-08-30T03:52:40;26.00;99.90
46055;DHT22;31788;6.954;-71.872;2022-08-30T03:55:07;26.00;99.90
46055;DHT22;31788;6.954;-71.872;2022-08-30T03:57:34;26.00;99.90
46055;DHT22;31788;6.954;-71.872;2022-08-30T04:00:02;26.00;99.90
46055;DHT22;31788;6.954;-71.872;2022-08-30T04:02:29;26.00;99.90
46055;DHT22;31788;6.954;-71.872;2022-08-30T04:04:55;25.90;99.90
46055;DHT22;31788;6.954;-71.872;2022-08-30T04:07:22;25.90;99.90
46055;DHT22;31788;6.954;-71.872;2022-08-30T04:09:48;25.90;99.90
46055;DHT22;31788;6.954;-71.872;2022-08-30T04:12:15;25.90;99.90
46055;DHT22;31788;6.954;-71.872;2022-08-30T04:14:42;25.90;99.90
46055;DHT22;31788;6.954;-71.872;2022-08-30T04:17:08;26.00;99.90
46055;DHT22;31788;6.954;-71.872;2022-08-30T04:19:35;25.90;99.90
46055;DHT22;31788;6.954;-71.872;2022-08-30T04:22:01;25.90;99.90
46055;DHT22;31788;6.954;-71.872;2022-08-30T04:24:28;25.90;99.90
46055;DHT22;31788;6.954;-71.872;2022-08-30T04:26:55;25.90;99.90
46055;DHT22;31788;6.954;-71.872;2022-08-30T04:29:21;25.90;99.90
46055;DHT22;31788;6.954;-71.872;2022-08-30T04:31:48;25.90;99.90
46055;DHT22;31788;6.954;-71.872;2022-08-30T04:34:14;25.90;99.90
46055;DHT22;31788;6.954;-71.872;2022-08-30T04:36:42;25.90;99.90
46055;DHT22;31788;6.954;-71.872;2022-08-30T04:39:09;25.90;99.90
46055;DHT22;31788;6.954;-71.872;2022-08-30T04:41:36;25.90;99.90
46055;DHT22;31788;6.954;-71.872;2022-08-30T04:44:05;25.80;99.90
46055;DHT22;31788;6.954;-71.872;2022-08-30T04:46:34;25.80;99.90
46055;DHT22;31788;6.954;-71.872;2022-08-30T04:49:01;25.80;99.90
46055;DHT22;31788;6.954;-71.872;2022-08-30T04:51:28;25.80;99.90
46055;DHT22;31788;6.954;-71.872;2022-08-30T04:53:54;25.80;99.90
46055;DHT22;31788;6.954;-71.872;2022-08-30T04:56:22;25.80;99.90
46055;DHT22;31788;6.954;-71.872;2022-08-30T04:58:51;25.70;99.90
46055;DHT22;31788;6.954;-71.872;2022-08-30T05:01:25;25.80;99.90
46055;DHT22;31788;6.954;-71.872;2022-08-30T05:03:53;25.80;99.90
46055;DHT22;31788;6.954;-71.872;2022-08-30T05:06:21;25.70;99.90
46055;DHT22;31788;6.954;-71.872;2022-08-30T05:08:47;25.70;99.90
46055;DHT22;31788;6.954;-71.872;2022-08-30T05:11:15;25.70;99.90
46055;DHT22;31788;6.954;-71.872;2022-08-30T05:13:42;25.60;99.90
46055;DHT22;31788;6.954;-71.872;2022-08-30T05:16:09;25.70;99.90
46055;DHT22;31788;6.954;-71.872;2022-08-30T05:18:38;25.70;99.90
46055;DHT22;31788;6.954;-71.872;2022-08-30T05:21:08;25.70;99.90
46055;DHT22;31788;6.954;-71.872;2022-08-30T05:23:36;25.70;99.90
46055;DHT22;31788;6.954;-71.872;2022-08-30T05:26:20;25.70;99.90
46055;DHT22;31788;6.954;-71.872;2022-08-30T05:28:47;25.60;99.90
46055;DHT22;31788;6.954;-71.872;2022-08-30T05:31:20;25.60;99.90
46055;DHT22;31788;6.954;-71.872;2022-08-30T05:33:48;25.60;99.90
46055;DHT22;31788;6.954;-71.872;2022-08-30T05:36:17;25.50;99.90
46055;DHT22;31788;6.954;-71.872;2022-08-30T05:38:44;25.60;99.90
46055;DHT22;31788;6.954;-71.872;2022-08-30T05:41:10;25.60;99.90
46055;DHT22;31788;6.954;-71.872;2022-08-30T05:43:37;25.50;99.90
46055;DHT22;31788;6.954;-71.872;2022-08-30T05:46:07;25.60;99.90
46055;DHT22;31788;6.954;-71.872;2022-08-30T05:48:35;25.60;99.90
46055;DHT22;31788;6.954;-71.872;2022-08-30T05:51:05;25.50;99.90
46055;DHT22;31788;6.954;-71.872;2022-08-30T05:53:33;25.50;99.90
46055;DHT22;31788;6.954;-71.872;2022-08-30T05:56:05;25.40;99.90
46055;DHT22;31788;6.954;-71.872;2022-08-30T05:58:32;25.40;99.90
46055;DHT22;31788;6.954;-71.872;2022-08-30T06:00:59;25.40;99.90
46055;DHT22;31788;6.954;-71.872;2022-08-30T06:03:26;25.40;99.90
46055;DHT22;31788;6.954;-71.872;2022-08-30T06:05:53;25.40;99.90
46055;DHT22;31788;6.954;-71.872;2022-08-30T06:08:21;25.40;99.90
46055;DHT22;31788;6.954;-71.872;2022-08-30T06:10:47;25.30;99.90
46055;DHT22;31788;6.954;-71.872;2022-08-30T06:13:14;25.30;99.90
46055;DHT22;31788;6.954;-71.872;2022-08-30T06:15:42;25.30;99.90
46055;DHT22;31788;6.954;-71.872;2022-08-30T06:18:12;25.30;99.90
46055;DHT22;31788;6.954;-71.872;2022-08-30T06:20:43;25.30;99.90
46055;DHT22;31788;6.954;-71.872;2022-08-30T06:23:13;25.30;99.90
46055;DHT22;31788;6.954;-71.872;2022-08-30T06:25:40;25.30;99.90
46055;DHT22;31788;6.954;-71.872;2022-08-30T06:28:06;25.30;99.90
46055;DHT22;31788;6.954;-71.872;2022-08-30T06:30:33;25.30;99.90
46055;DHT22;31788;6.954;-71.872;2022-08-30T06:33:00;25.30;99.90
46055;DHT22;31788;6.954;-71.872;2022-08-30T06:35:27;25.20;99.90
46055;DHT22;31788;6.954;-71.872;2022-08-30T06:37:54;25.30;99.90
46055;DHT22;31788;6.954;-71.872;2022-08-30T06:40:21;25.30;99.90
46055;DHT22;31788;6.954;-71.872;2022-08-30T06:42:48;25.30;99.90
46055;DHT22;31788;6.954;-71.872;2022-08-30T06:45:17;25.30;99.90
46055;DHT22;31788;6.954;-71.872;2022-08-30T06:47:46;25.30;99.90
46055;DHT22;31788;6.954;-71.872;2022-08-30T06:50:14;25.30;99.90
46055;DHT22;31788;6.954;-71.872;2022-08-30T06:52:42;25.40;99.90
46055;DHT22;31788;6.954;-71.872;2022-08-30T06:55:10;25.30;99.90
46055;DHT22;31788;6.954;-71.872;2022-08-30T06:57:38;25.30;99.90
46055;DHT22;31788;6.954;-71.872;2022-08-30T07:00:07;25.30;99.90
46055;DHT22;31788;6.954;-71.872;2022-08-30T07:02:37;25.10;99.90
46055;DHT22;31788;6.954;-71.872;2022-08-30T07:05:04;25.10;99.90
46055;DHT22;31788;6.954;-71.872;2022-08-30T07:07:31;25.10;99.90
46055;DHT22;31788;6.954;-71.872;2022-08-30T07:09:58;25.10;99.90
46055;DHT22;31788;6.954;-71.872;2022-08-30T07:12:24;25.10;99.90
46055;DHT22;31788;6.954;-71.872;2022-08-30T07:14:51;25.20;99.90
46055;DHT22;31788;6.954;-71.872;2022-08-30T07:17:17;25.20;99.90
46055;DHT22;31788;6.954;-71.872;2022-08-30T07:20:03;25.10;99.90
46055;DHT22;31788;6.954;-71.872;2022-08-30T07:22:32;25.10;99.90
46055;DHT22;31788;6.954;-71.872;2022-08-30T07:24:59;25.00;99.90
46055;DHT22;31788;6.954;-71.872;2022-08-30T07:27:25;25.00;99.90
46055;DHT22;31788;6.954;-71.872;2022-08-30T07:29:52;25.00;99.90
46055;DHT22;31788;6.954;-71.872;2022-08-30T07:32:18;24.90;99.90
46055;DHT22;31788;6.954;-71.872;2022-08-30T07:34:45;24.90;99.90
46055;DHT22;31788;6.954;-71.872;2022-08-30T07:37:11;25.00;99.90
46055;DHT22;31788;6.954;-71.872;2022-08-30T07:39:38;25.00;99.90
46055;DHT22;31788;6.954;-71.872;2022-08-30T07:42:04;25.10;99.90
46055;DHT22;31788;6.954;-71.872;2022-08-30T07:44:31;25.10;99.90
46055;DHT22;31788;6.954;-71.872;2022-08-30T07:46:57;25.10;99.90
46055;DHT22;31788;6.954;-71.872;2022-08-30T07:49:24;25.10;99.90
46055;DHT22;31788;6.954;-71.872;2022-08-30T07:51:51;25.10;99.90
46055;DHT22;31788;6.954;-71.872;2022-08-30T07:54:17;25.10;99.90
46055;DHT22;31788;6.954;-71.872;2022-08-30T07:56:44;25.10;99.90
46055;DHT22;31788;6.954;-71.872;2022-08-30T07:59:10;25.00;99.90
46055;DHT22;31788;6.954;-71.872;2022-08-30T08:01:37;25.10;99.90
46055;DHT22;31788;6.954;-71.872;2022-08-30T08:04:03;25.00;99.90
46055;DHT22;31788;6.954;-71.872;2022-08-30T08:06:30;25.10;99.90
46055;DHT22;31788;6.954;-71.872;2022-08-30T08:08:57;25.00;99.90
46055;DHT22;31788;6.954;-71.872;2022-08-30T08:11:27;25.00;99.90
46055;DHT22;31788;6.954;-71.872;2022-08-30T08:13:54;25.10;99.90
46055;DHT22;31788;6.954;-71.872;2022-08-30T08:16:23;25.00;99.90
46055;DHT22;31788;6.954;-71.872;2022-08-30T08:18:51;25.10;99.90
46055;DHT22;31788;6.954;-71.872;2022-08-30T08:21:18;25.10;99.90
46055;DHT22;31788;6.954;-71.872;2022-08-30T08:23:45;25.10;99.90
46055;DHT22;31788;6.954;-71.872;2022-08-30T08:26:11;25.10;99.90
46055;DHT22;31788;6.954;-71.872;2022-08-30T08:28:38;25.00;99.90
46055;DHT22;31788;6.954;-71.872;2022-08-30T08:31:17;25.00;99.90
46055;DHT22;31788;6.954;-71.872;2022-08-30T08:33:44;25.00;99.90
46055;DHT22;31788;6.954;-71.872;2022-08-30T08:36:11;25.00;99.90
46055;DHT22;31788;6.954;-71.872;2022-08-30T08:38:38;25.00;99.90
46055;DHT22;31788;6.954;-71.872;2022-08-30T08:41:38;25.00;99.90
46055;DHT22;31788;6.954;-71.872;2022-08-30T08:47:04;25.00;99.90
46055;DHT22;31788;6.954;-71.872;2022-08-30T08:49:35;24.90;99.90
46055;DHT22;31788;6.954;-71.872;2022-08-30T08:52:06;25.00;99.90
46055;DHT22;31788;6.954;-71.872;2022-08-30T08:54:58;25.10;99.90
46055;DHT22;31788;6.954;-71.872;2022-08-30T08:57:30;25.10;99.90
46055;DHT22;31788;6.954;-71.872;2022-08-30T08:59:58;25.10;99.90
46055;DHT22;31788;6.954;-71.872;2022-08-30T09:02:40;25.10;99.90
46055;DHT22;31788;6.954;-71.872;2022-08-30T09:05:08;25.10;99.90
46055;DHT22;31788;6.954;-71.872;2022-08-30T09:07:41;25.10;99.90
46055;DHT22;31788;6.954;-71.872;2022-08-30T09:10:09;25.00;99.90
46055;DHT22;31788;6.954;-71.872;2022-08-30T09:12:36;25.00;99.90
46055;DHT22;31788;6.954;-71.872;2022-08-30T09:15:18;24.90;99.90
46055;DHT22;31788;6.954;-71.872;2022-08-30T09:18:07;24.90;99.90
46055;DHT22;31788;6.954;-71.872;2022-08-30T09:20:41;24.90;99.90
46055;DHT22;31788;6.954;-71.872;2022-08-30T09:23:26;24.90;99.90
46055;DHT22;31788;6.954;-71.872;2022-08-30T09:25:59;24.90;99.90
46055;DHT22;31788;6.954;-71.872;2022-08-30T09:28:49;25.00;99.90
46055;DHT22;31788;6.954;-71.872;2022-08-30T09:31:26;25.10;99.90
46055;DHT22;31788;6.954;-71.872;2022-08-30T09:33:59;25.10;99.90
46055;DHT22;31788;6.954;-71.872;2022-08-30T09:36:50;25.10;99.90
46055;DHT22;31788;6.954;-71.872;2022-08-30T09:39:29;25.10;99.90
46055;DHT22;31788;6.954;-71.872;2022-08-30T09:42:20;25.10;99.90
46055;DHT22;31788;6.954;-71.872;2022-08-30T09:44:48;25.00;99.90
46055;DHT22;31788;6.954;-71.872;2022-08-30T09:47:28;24.90;99.90
46055;DHT22;31788;6.954;-71.872;2022-08-30T09:50:12;25.00;99.90
46055;DHT22;31788;6.954;-71.872;2022-08-30T10:00:38;25.00;99.90
46055;DHT22;31788;6.954;-71.872;2022-08-30T10:05:53;25.00;99.90
46055;DHT22;31788;6.954;-71.872;2022-08-30T10:11:25;25.00;99.90
46055;DHT22;31788;6.954;-71.872;2022-08-30T10:23:02;24.80;99.90
46055;DHT22;31788;6.954;-71.872;2022-08-30T10:28:15;24.80;99.90
46055;DHT22;31788;6.954;-71.872;2022-08-30T10:30:55;24.70;99.90
46055;DHT22;31788;6.954;-71.872;2022-08-30T10:33:34;24.70;99.90
46055;DHT22;31788;6.954;-71.872;2022-08-30T10:36:05;24.70;99.90
46055;DHT22;31788;6.954;-71.872;2022-08-30T10:38:47;24.70;99.90
46055;DHT22;31788;6.954;-71.872;2022-08-30T10:41:40;24.70;99.90
46055;DHT22;31788;6.954;-71.872;2022-08-30T10:44:14;24.70;99.90
46055;DHT22;31788;6.954;-71.872;2022-08-30T10:49:31;24.70;99.90
46055;DHT22;31788;6.954;-71.872;2022-08-30T10:52:30;24.70;99.90
46055;DHT22;31788;6.954;-71.872;2022-08-30T10:57:42;24.70;99.90
46055;DHT22;31788;6.954;-71.872;2022-08-30T11:00:13;24.70;99.90
46055;DHT22;31788;6.954;-71.872;2022-08-30T11:14:01;24.90;99.90
46055;DHT22;31788;6.954;-71.872;2022-08-30T11:16:40;24.90;99.90
46055;DHT22;31788;6.954;-71.872;2022-08-30T11:19:23;24.90;99.90
46055;DHT22;31788;6.954;-71.872;2022-08-30T11:21:52;25.10;99.90
46055;DHT22;31788;6.954;-71.872;2022-08-30T11:35:42;25.30;99.90
46055;DHT22;31788;6.954;-71.872;2022-08-30T11:46:16;25.40;99.90
46055;DHT22;31788;6.954;-71.872;2022-08-30T12:00:35;25.50;99.90
46055;DHT22;31788;6.954;-71.872;2022-08-30T12:16:21;26.00;99.90
46055;DHT22;31788;6.954;-71.872;2022-08-30T12:18:59;26.00;99.90
46055;DHT22;31788;6.954;-71.872;2022-08-30T12:21:36;26.00;99.90
46055;DHT22;31788;6.954;-71.872;2022-08-30T12:24:20;26.10;99.90
46055;DHT22;31788;6.954;-71.872;2022-08-30T12:26:50;26.10;99.90
46055;DHT22;31788;6.954;-71.872;2022-08-30T12:29:29;26.10;99.90
46055;DHT22;31788;6.954;-71.872;2022-08-30T12:31:58;26.10;99.90
46055;DHT22;31788;6.954;-71.872;2022-08-30T12:34:36;26.10;99.90
46055;DHT22;31788;6.954;-71.872;2022-08-30T12:37:25;26.20;99.90
46055;DHT22;31788;6.954;-71.872;2022-08-30T12:40:05;26.20;99.90
46055;DHT22;31788;6.954;-71.872;2022-08-30T12:42:35;26.20;99.90
46055;DHT22;31788;6.954;-71.872;2022-08-30T12:45:13;26.20;99.90
46055;DHT22;31788;6.954;-71.872;2022-08-30T12:47:47;26.20;99.90
46055;DHT22;31788;6.954;-71.872;2022-08-30T12:50:23;26.20;99.90
46055;DHT22;31788;6.954;-71.872;2022-08-30T12:53:02;26.30;99.90
46055;DHT22;31788;6.954;-71.872;2022-08-30T12:55:33;26.30;99.90
46055;DHT22;31788;6.954;-71.872;2022-08-30T12:58:09;26.30;99.90
46055;DHT22;31788;6.954;-71.872;2022-08-30T13:00:41;26.30;99.90
46055;DHT22;31788;6.954;-71.872;2022-08-30T13:05:55;26.40;99.90
46055;DHT22;31788;6.954;-71.872;2022-08-30T13:11:23;26.40;99.90
46055;DHT22;31788;6.954;-71.872;2022-08-30T13:13:56;26.40;99.90
46055;DHT22;31788;6.954;-71.872;2022-08-30T13:16:41;26.40;99.90
46055;DHT22;31788;6.954;-71.872;2022-08-30T13:19:37;26.50;99.90
46055;DHT22;31788;6.954;-71.872;2022-08-30T13:22:24;26.50;99.90
46055;DHT22;31788;6.954;-71.872;2022-08-30T13:24:51;26.50;99.90
46055;DHT22;31788;6.954;-71.872;2022-08-30T13:27:19;26.50;99.90
46055;DHT22;31788;6.954;-71.872;2022-08-30T13:29:46;26.50;99.90
46055;DHT22;31788;6.954;-71.872;2022-08-30T13:32:13;26.40;99.90
46055;DHT22;31788;6.954;-71.872;2022-08-30T13:34:41;26.50;99.90
46055;DHT22;31788;6.954;-71.872;2022-08-30T13:37:14;26.50;99.90
46055;DHT22;31788;6.954;-71.872;2022-08-30T13:39:41;26.50;99.90
46055;DHT22;31788;6.954;-71.872;2022-08-30T13:42:07;26.50;99.90
46055;DHT22;31788;6.954;-71.872;2022-08-30T13:44:34;26.60;99.90
46055;DHT22;31788;6.954;-71.872;2022-08-30T13:47:01;26.60;99.90
46055;DHT22;31788;6.954;-71.872;2022-08-30T13:49:31;26.60;99.90
46055;DHT22;31788;6.954;-71.872;2022-08-30T13:52:02;26.60;99.90
46055;DHT22;31788;6.954;-71.872;2022-08-30T13:54:29;26.60;99.90
46055;DHT22;31788;6.954;-71.872;2022-08-30T13:56:56;26.60;99.90
46055;DHT22;31788;6.954;-71.872;2022-08-30T13:59:23;26.60;99.90
46055;DHT22;31788;6.954;-71.872;2022-08-30T14:01:52;26.60;99.90
46055;DHT22;31788;6.954;-71.872;2022-08-30T14:04:18;26.70;99.90
46055;DHT22;31788;6.954;-71.872;2022-08-30T14:06:45;26.70;99.90
46055;DHT22;31788;6.954;-71.872;2022-08-30T14:09:12;26.80;99.90
46055;DHT22;31788;6.954;-71.872;2022-08-30T14:11:40;26.90;99.90
46055;DHT22;31788;6.954;-71.872;2022-08-30T14:14:07;26.90;99.90
46055;DHT22;31788;6.954;-71.872;2022-08-30T14:16:35;26.90;99.90
46055;DHT22;31788;6.954;-71.872;2022-08-30T14:19:03;27.00;99.90
46055;DHT22;31788;6.954;-71.872;2022-08-30T14:21:30;27.00;99.90
46055;DHT22;31788;6.954;-71.872;2022-08-30T14:23:57;27.10;99.90
46055;DHT22;31788;6.954;-71.872;2022-08-30T14:26:34;27.10;99.90
46055;DHT22;31788;6.954;-71.872;2022-08-30T14:29:04;27.20;99.90
46055;DHT22;31788;6.954;-71.872;2022-08-30T14:31:31;27.30;99.90
46055;DHT22;31788;6.954;-71.872;2022-08-30T14:33:58;27.30;99.90
46055;DHT22;31788;6.954;-71.872;2022-08-30T14:36:24;27.30;99.90
46055;DHT22;31788;6.954;-71.872;2022-08-30T14:38:51;27.40;99.90
46055;DHT22;31788;6.954;-71.872;2022-08-30T14:41:17;27.40;99.90
46055;DHT22;31788;6.954;-71.872;2022-08-30T14:43:44;27.40;99.90
46055;DHT22;31788;6.954;-71.872;2022-08-30T14:46:11;27.50;99.90
46055;DHT22;31788;6.954;-71.872;2022-08-30T14:48:38;27.50;99.90
46055;DHT22;31788;6.954;-71.872;2022-08-30T14:51:16;27.60;99.90
46055;DHT22;31788;6.954;-71.872;2022-08-30T14:53:44;27.60;99.90
46055;DHT22;31788;6.954;-71.872;2022-08-30T14:56:13;27.70;99.90
46055;DHT22;31788;6.954;-71.872;2022-08-30T14:58:41;27.70;99.90
46055;DHT22;31788;6.954;-71.872;2022-08-30T15:01:09;27.70;99.90
46055;DHT22;31788;6.954;-71.872;2022-08-30T15:03:37;27.80;99.90
46055;DHT22;31788;6.954;-71.872;2022-08-30T15:06:05;27.80;99.90
46055;DHT22;31788;6.954;-71.872;2022-08-30T15:08:33;27.80;99.90
46055;DHT22;31788;6.954;-71.872;2022-08-30T15:11:00;27.80;99.90
46055;DHT22;31788;6.954;-71.872;2022-08-30T15:13:26;27.80;99.90
46055;DHT22;31788;6.954;-71.872;2022-08-30T15:15:53;27.90;99.90
46055;DHT22;31788;6.954;-71.872;2022-08-30T15:18:22;27.90;99.90
46055;DHT22;31788;6.954;-71.872;2022-08-30T15:20:49;27.90;99.90
46055;DHT22;31788;6.954;-71.872;2022-08-30T15:26:40;27.90;99.90
46055;DHT22;31788;6.954;-71.872;2022-08-30T15:29:14;27.90;99.90
46055;DHT22;31788;6.954;-71.872;2022-08-30T15:31:41;27.90;99.90
46055;DHT22;31788;6.954;-71.872;2022-08-30T15:34:10;27.90;99.90
46055;DHT22;31788;6.954;-71.872;2022-08-30T15:36:40;27.90;99.90
46055;DHT22;31788;6.954;-71.872;2022-08-30T15:39:06;28.00;99.90
46055;DHT22;31788;6.954;-71.872;2022-08-30T15:41:33;28.00;99.90
46055;DHT22;31788;6.954;-71.872;2022-08-30T15:44:01;28.00;99.90
46055;DHT22;31788;6.954;-71.872;2022-08-30T15:46:31;28.00;99.90
46055;DHT22;31788;6.954;-71.872;2022-08-30T15:49:00;28.00;99.90
46055;DHT22;31788;6.954;-71.872;2022-08-30T15:51:28;28.00;99.90
46055;DHT22;31788;6.954;-71.872;2022-08-30T15:53:55;28.00;99.90
46055;DHT22;31788;6.954;-71.872;2022-08-30T15:56:21;28.00;99.90
46055;DHT22;31788;6.954;-71.872;2022-08-30T16:02:49;28.00;99.90
46055;DHT22;31788;6.954;-71.872;2022-08-30T16:05:22;28.10;99.90
46055;DHT22;31788;6.954;-71.872;2022-08-30T16:08:04;28.10;99.90
46055;DHT22;31788;6.954;-71.872;2022-08-30T16:10:37;28.10;99.90
46055;DHT22;31788;6.954;-71.872;2022-08-30T16:13:26;28.10;99.90
46055;DHT22;31788;6.954;-71.872;2022-08-30T16:16:11;28.10;99.90
46055;DHT22;31788;6.954;-71.872;2022-08-30T16:18:48;28.20;99.90
46055;DHT22;31788;6.954;-71.872;2022-08-30T16:21:19;28.20;99.90
46055;DHT22;31788;6.954;-71.872;2022-08-30T16:23:47;28.20;99.90
46055;DHT22;31788;6.954;-71.872;2022-08-30T16:26:16;28.30;99.90
46055;DHT22;31788;6.954;-71.872;2022-08-30T16:28:45;28.30;99.90
46055;DHT22;31788;6.954;-71.872;2022-08-30T16:31:13;28.30;99.90
46055;DHT22;31788;6.954;-71.872;2022-08-30T16:33:40;28.30;99.90
46055;DHT22;31788;6.954;-71.872;2022-08-30T16:36:07;28.30;99.90
46055;DHT22;31788;6.954;-71.872;2022-08-30T16:38:36;28.40;99.70
46055;DHT22;31788;6.954;-71.872;2022-08-30T16:41:05;28.40;99.90
46055;DHT22;31788;6.954;-71.872;2022-08-30T16:43:32;28.40;99.90
46055;DHT22;31788;6.954;-71.872;2022-08-30T16:46:00;28.40;99.90
46055;DHT22;31788;6.954;-71.872;2022-08-30T16:48:27;28.50;99.90
46055;DHT22;31788;6.954;-71.872;2022-08-30T16:50:54;28.50;99.80
46055;DHT22;31788;6.954;-71.872;2022-08-30T16:53:22;28.50;99.90
46055;DHT22;31788;6.954;-71.872;2022-08-30T16:55:50;28.50;99.60
46055;DHT22;31788;6.954;-71.872;2022-08-30T16:58:17;28.50;99.80
46055;DHT22;31788;6.954;-71.872;2022-08-30T17:00:50;28.50;99.80
46055;DHT22;31788;6.954;-71.872;2022-08-30T17:03:22;28.40;99.80
46055;DHT22;31788;6.954;-71.872;2022-08-30T17:05:51;28.50;99.60
46055;DHT22;31788;6.954;-71.872;2022-08-30T17:08:18;28.40;99.50
46055;DHT22;31788;6.954;-71.872;2022-08-30T17:10:53;28.40;99.50
46055;DHT22;31788;6.954;-71.872;2022-08-30T17:13:29;28.40;99.40
46055;DHT22;31788;6.954;-71.872;2022-08-30T17:15:58;28.40;99.70